Time;durP1;ratioP1;P1;durP2;ratioP2;P2;SDS_P1;SDS_P2;PMS_P1;PMS_P2;Temp;Humidity;BMP_temperature;BMP_pressure;BME280_temperature;BME280_humidity;BME280_pressure;Samples;Min_cycle;Max_cycle;Signal;HPM_P1;HPM_P2
2022/04/10 00:02:22;;;;;;;0.88;0.10;;;;;;;19.47;47.37;100295.25;5005611;28;20038;-46
2022/04/10 00:04:48;;;;;;;2.08;0.20;;;;;;;19.46;47.50;100309.47;5003435;28;20413;-49
2022/04/10 00:07:13;;;;;;;1.25;0.05;;;;;;;19.45;47.54;100302.56;5004254;28;20215;-49
2022/04/10 00:09:39;;;;;;;1.27;0.00;;;;;;;19.44;47.43;100300.13;4995623;28;20038;-50
2022/04/10 00:12:05;;;;;;;0.30;0.00;;;;;;;19.44;47.68;100316.81;4995615;28;20042;-54
2022/04/10 00:14:30;;;;;;;0.30;0.10;;;;;;;19.44;47.47;100308.88;5006750;28;20053;-48
2022/04/10 00:16:56;;;;;;;0.43;0.10;;;;;;;19.44;47.42;100313.34;5006015;28;20196;-51
2022/04/10 00:19:22;;;;;;;0.77;0.00;;;;;;;19.44;47.50;100313.34;5005118;28;20683;-52
2022/04/10 00:21:48;;;;;;;0.93;0.10;;;;;;;19.43;47.66;100317.81;5006027;28;20489;-49
2022/04/10 00:24:14;;;;;;;0.30;0.00;;;;;;;19.42;47.70;100324.13;4999555;28;20042;-50
2022/04/10 00:26:39;;;;;;;1.15;0.00;;;;;;;19.42;47.59;100325.94;5007325;28;20038;-49
2022/04/10 00:29:05;;;;;;;0.25;0.00;;;;;;;19.41;47.73;100322.50;5009799;28;20637;-47
2022/04/10 00:31:30;;;;;;;1.27;0.00;;;;;;;19.40;47.70;100326.16;5009893;28;20178;-48
2022/04/10 00:33:56;;;;;;;0.17;0.00;;;;;;;19.40;47.54;100326.16;5009888;28;20040;-47
2022/04/10 00:36:21;;;;;;;0.50;0.00;;;;;;;19.38;47.73;100333.47;5009582;28;20073;-48
2022/04/10 00:38:47;;;;;;;0.47;0.10;;;;;;;19.37;47.70;100331.88;5008465;28;20018;-48
2022/04/10 00:41:12;;;;;;;0.43;0.00;;;;;;;19.37;47.72;100328.41;4991599;28;20034;-48
2022/04/10 00:43:39;;;;;;;0.73;0.03;;;;;;;19.36;47.60;100326.78;5001591;28;20577;-49
2022/04/10 00:46:05;;;;;;;0.10;0.00;;;;;;;19.35;47.51;100333.91;5009423;28;20091;-48
2022/04/10 00:48:31;;;;;;;0.65;0.00;;;;;;;19.34;47.43;100337.56;5009563;28;20041;-47
2022/04/10 00:53:41;;;;;;;1.25;0.00;;;;;;;19.32;47.43;100334.31;5001451;28;20124;-47
2022/04/10 00:56:07;;;;;;;0.50;0.00;;;;;;;19.32;47.38;100336.16;5006784;28;20473;-48
2022/04/10 00:58:33;;;;;;;0.13;0.10;;;;;;;19.32;47.51;100328.22;5008251;28;20049;-47
2022/04/10 01:00:58;;;;;;;0.40;0.10;;;;;;;19.32;47.31;100339.59;5010306;28;20038;-48
2022/04/10 01:03:24;;;;;;;0.10;0.00;;;;;;;19.30;47.67;100341.63;5008029;28;20030;-47
2022/04/10 01:05:50;;;;;;;0.30;0.10;;;;;;;19.29;47.57;100342.66;5007206;28;20034;-48
2022/04/10 01:08:16;;;;;;;0.90;0.10;;;;;;;19.30;47.57;100341.63;5009065;28;20140;-48
2022/04/10 01:10:42;;;;;;;0.90;0.00;;;;;;;19.29;47.84;100342.66;5009329;28;20453;-48
2022/04/10 01:13:08;;;;;;;0.43;0.10;;;;;;;19.29;47.51;100344.47;5007695;28;20038;-47
2022/04/10 01:15:35;;;;;;;0.10;0.00;;;;;;;19.30;47.68;100340.81;5008347;28;20030;-51
2022/04/10 01:18:01;;;;;;;0.20;0.00;;;;;;;19.30;47.60;100344.28;5008362;28;20500;-46
2022/04/10 01:20:27;;;;;;;0.38;0.00;;;;;;;19.31;47.77;100345.91;5004528;28;20108;-48
2022/04/10 01:22:53;;;;;;;0.88;0.03;;;;;;;19.31;47.64;100351.19;5009960;28;20080;-49
2022/04/10 01:25:19;;;;;;;0.32;0.10;;;;;;;19.32;47.66;100352.00;5021655;28;20461;-51
2022/04/10 01:27:44;;;;;;;0.43;0.10;;;;;;;19.31;47.35;100351.19;5009461;28;20109;-47
2022/04/10 01:30:12;;;;;;;0.10;0.00;;;;;;;19.32;47.33;100360.72;5008060;28;20037;-48
2022/04/10 01:32:38;;;;;;;0.50;0.08;;;;;;;19.32;47.17;100354.63;5008185;28;20061;-48
2022/04/10 01:35:04;;;;;;;0.15;0.00;;;;;;;19.32;47.45;100358.09;5007055;28;20651;-48
2022/04/10 01:37:31;;;;;;;0.57;0.00;;;;;;;19.32;47.35;100352.81;5005832;28;20095;-50
2022/04/10 01:39:57;;;;;;;0.93;0.00;;;;;;;19.31;47.34;100353.00;5007168;28;20042;-50
2022/04/10 01:42:22;;;;;;;0.47;0.08;;;;;;;19.31;47.28;100358.28;5009198;28;20033;-48
2022/04/10 01:44:48;;;;;;;0.57;0.08;;;;;;;19.29;47.39;100349.75;5008601;28;20030;-48
2022/04/10 01:47:14;;;;;;;0.28;0.00;;;;;;;19.28;47.43;100350.78;5007509;28;20480;-48
2022/04/10 01:49:39;;;;;;;0.28;0.00;;;;;;;19.27;47.51;100352.59;5004780;28;20049;-46
2022/04/10 01:52:05;;;;;;;0.32;0.00;;;;;;;19.26;47.27;100348.34;5007813;28;20028;-48
2022/04/10 01:54:31;;;;;;;0.13;0.00;;;;;;;19.25;47.53;100352.00;5008397;28;20026;-48
2022/04/10 01:56:57;;;;;;;0.43;0.03;;;;;;;19.23;47.29;100356.66;5007954;28;20461;-48
2022/04/10 01:59:23;;;;;;;0.68;0.03;;;;;;;19.23;47.49;100356.66;5006035;28;20037;-49
2022/04/10 02:01:48;;;;;;;0.50;0.00;;;;;;;19.21;47.21;100356.88;5007026;28;20033;-50
2022/04/10 02:04:14;;;;;;;0.47;0.00;;;;;;;19.21;47.13;100353.41;5007965;28;20044;-53
2022/04/10 02:06:40;;;;;;;0.43;0.10;;;;;;;19.21;47.25;100363.97;5000515;28;20173;-52
2022/04/10 02:09:08;;;;;;;0.25;0.00;;;;;;;19.20;47.38;100370.28;5007472;28;20049;-49
2022/04/10 02:11:34;;;;;;;0.20;0.03;;;;;;;19.18;47.38;100364.38;5018908;22;20257;-50
2022/04/10 02:13:59;;;;;;;0.20;0.00;;;;;;;19.17;47.43;100375.97;4986414;28;20667;-47
2022/04/10 02:16:25;;;;;;;0.20;0.00;;;;;;;19.17;47.49;100373.31;4988824;28;20030;-48
2022/04/10 02:18:50;;;;;;;1.35;0.10;;;;;;;19.16;47.42;100374.34;4988293;28;20084;-46
2022/04/10 02:21:16;;;;;;;0.30;0.00;;;;;;;19.16;47.26;100374.34;4988558;28;20030;-50
2022/04/10 02:23:42;;;;;;;0.40;0.00;;;;;;;19.15;47.10;100378.00;4988783;28;20027;-52
2022/04/10 02:26:10;;;;;;;0.45;0.00;;;;;;;19.16;47.33;100383.06;5003311;28;20042;-48
2022/04/10 02:28:36;;;;;;;1.48;0.10;;;;;;;19.15;47.03;100385.91;4988472;28;20034;-48
2022/04/10 02:31:01;;;;;;;0.30;0.00;;;;;;;19.14;47.16;100385.09;4988397;28;20034;-49
2022/04/10 02:33:27;;;;;;;0.30;0.03;;;;;;;19.15;47.13;100385.91;4988419;28;20063;-47
2022/04/10 02:35:52;;;;;;;0.93;0.05;;;;;;;19.15;47.00;100391.19;4988173;28;20027;-48
2022/04/10 02:38:18;;;;;;;0.20;0.10;;;;;;;19.14;47.03;100392.22;4988099;28;20098;-49
2022/04/10 02:40:44;;;;;;;0.32;0.00;;;;;;;19.14;47.14;100394.84;4988200;28;20030;-48
2022/04/10 02:43:10;;;;;;;0.30;0.00;;;;;;;19.13;47.13;100387.94;4988123;28;20027;-48
2022/04/10 02:45:36;;;;;;;0.80;0.17;;;;;;;19.12;46.85;100386.31;5002971;28;20030;-47
2022/04/10 02:48:02;;;;;;;0.50;0.00;;;;;;;19.12;47.18;100396.88;4987592;28;20076;-49
2022/04/10 02:50:28;;;;;;;0.52;0.00;;;;;;;19.11;46.97;100395.25;4987730;28;20030;-51
2022/04/10 02:52:54;;;;;;;0.08;0.00;;;;;;;19.09;47.21;100397.28;4988210;28;20037;-48
2022/04/10 02:55:20;;;;;;;0.30;0.00;;;;;;;19.08;47.30;100395.66;4986610;28;20026;-49
2022/04/10 02:57:45;;;;;;;0.32;0.10;;;;;;;19.06;47.00;100397.69;4987943;28;20060;-47
2022/04/10 03:00:11;;;;;;;0.82;0.00;;;;;;;19.06;47.08;100401.13;4987737;28;20034;-48
2022/04/10 03:02:40;;;;;;;0.50;0.00;;;;;;;19.04;46.90;100404.97;4987885;28;20045;-48
2022/04/10 03:05:09;;;;;;;0.10;0.00;;;;;;;19.03;46.94;100414.72;4987934;28;20026;-48
2022/04/10 03:07:35;;;;;;;0.90;0.00;;;;;;;19.03;47.17;100412.09;4986216;28;20049;-50
2022/04/10 03:10:00;;;;;;;0.17;0.00;;;;;;;19.02;47.04;100417.56;4987972;28;20338;-49
2022/04/10 03:12:26;;;;;;;0.40;0.10;;;;;;;19.01;47.03;100421.22;4987746;28;20140;-49
2022/04/10 03:14:51;;;;;;;0.50;0.00;;;;;;;19.00;47.06;100428.34;4987597;28;20026;-49
2022/04/10 03:17:17;;;;;;;0.20;0.00;;;;;;;19.00;47.15;100425.69;4987563;28;20091;-49
2022/04/10 03:19:42;;;;;;;0.43;0.10;;;;;;;18.99;46.90;100428.53;4987445;28;20045;-49
2022/04/10 03:22:08;;;;;;;0.38;0.00;;;;;;;18.99;46.80;100432.00;4987491;28;20289;-48
2022/04/10 03:24:33;;;;;;;0.52;0.10;;;;;;;19.01;46.65;100434.44;4987454;28;20034;-50
2022/04/10 03:26:59;;;;;;;0.30;0.10;;;;;;;19.00;46.84;100430.97;4987679;28;20022;-50
2022/04/10 03:29:24;;;;;;;0.20;0.08;;;;;;;19.00;46.53;100436.25;4987472;28;20045;-48
2022/04/10 03:31:50;;;;;;;0.20;0.00;;;;;;;19.02;46.73;100444.78;4987269;28;20077;-52
2022/04/10 03:34:15;;;;;;;0.40;0.10;;;;;;;19.03;46.65;100445.59;4987667;28;20390;-48
2022/04/10 03:36:40;;;;;;;0.32;0.03;;;;;;;19.03;46.92;100445.59;4987446;28;20026;-48
2022/04/10 03:39:06;;;;;;;0.30;0.10;;;;;;;19.04;46.74;100447.22;4987145;28;20453;-48
2022/04/10 03:41:31;;;;;;;0.30;0.08;;;;;;;19.05;46.78;100448.84;4987210;28;20038;-49
2022/04/10 03:43:57;;;;;;;0.20;0.00;;;;;;;19.04;46.98;100447.22;4987252;28;20502;-47
2022/04/10 03:46:22;;;;;;;1.15;0.10;;;;;;;19.03;46.83;100449.06;4987259;28;20023;-50
2022/04/10 03:48:48;;;;;;;0.38;0.20;;;;;;;19.05;47.02;100454.97;4987355;28;20413;-52
2022/04/10 03:51:13;;;;;;;0.47;0.00;;;;;;;19.03;47.11;100462.25;4987531;28;20027;-49
2022/04/10 03:53:39;;;;;;;0.63;0.10;;;;;;;19.03;47.13;100472.81;4987182;28;20030;-46
2022/04/10 03:56:04;;;;;;;0.63;0.10;;;;;;;19.01;47.14;100472.22;4987707;28;20026;-50
2022/04/10 03:58:30;;;;;;;0.20;0.00;;;;;;;19.00;47.20;100486.41;4987384;28;20085;-47
2022/04/10 04:00:56;;;;;;;0.32;0.00;;;;;;;18.99;47.00;100499.81;4988642;28;20478;-48
2022/04/10 04:03:21;;;;;;;0.43;0.00;;;;;;;18.98;47.18;100487.63;4991495;28;20101;-48
2022/04/10 04:05:47;;;;;;;0.30;0.08;;;;;;;18.98;47.16;100490.28;4991719;28;20568;-48
2022/04/10 04:08:13;;;;;;;0.30;0.10;;;;;;;18.96;46.92;100490.47;4989559;28;20062;-50
2022/04/10 04:10:38;;;;;;;0.57;0.00;;;;;;;18.96;47.03;100502.84;4991117;28;20160;-46
2022/04/10 04:13:03;;;;;;;0.38;0.10;;;;;;;18.96;46.95;100502.84;4990870;28;20444;-50
2022/04/10 04:15:29;;;;;;;0.20;0.03;;;;;;;18.94;47.09;100502.25;4990818;28;20225;-46
2022/04/10 04:17:54;;;;;;;0.13;0.05;;;;;;;18.93;47.02;100500.59;4991128;28;20034;-49
2022/04/10 04:20:20;;;;;;;0.45;0.00;;;;;;;18.92;46.95;100501.63;4990862;28;20026;-47
2022/04/10 04:22:46;;;;;;;0.20;0.03;;;;;;;18.91;46.86;100508.72;4990660;28;20030;-51
2022/04/10 04:25:11;;;;;;;0.20;0.00;;;;;;;18.90;46.66;100507.13;4990576;28;20028;-49
2022/04/10 04:27:36;;;;;;;0.77;0.00;;;;;;;18.89;46.95;100514.22;4991008;28;20284;-47
2022/04/10 04:30:03;;;;;;;0.50;0.10;;;;;;;18.88;46.77;100523.16;4990515;28;20061;-50
2022/04/10 04:32:28;;;;;;;0.30;0.00;;;;;;;18.88;46.64;100515.25;4990717;28;20034;-50
2022/04/10 04:34:54;;;;;;;0.68;0.10;;;;;;;18.86;46.67;100514.63;4990509;28;20026;-51
2022/04/10 04:37:19;;;;;;;0.52;0.10;;;;;;;18.86;46.48;100519.09;4990880;28;20101;-49
2022/04/10 04:39:45;;;;;;;0.73;0.10;;;;;;;18.86;46.43;100519.91;4990385;28;20054;-48
2022/04/10 04:42:10;;;;;;;0.50;0.10;;;;;;;18.86;46.39;100525.19;4990494;28;20041;-48
2022/04/10 04:44:36;;;;;;;0.38;0.00;;;;;;;18.86;46.42;100533.09;4990404;28;20030;-49
2022/04/10 04:47:01;;;;;;;0.30;0.10;;;;;;;18.87;46.12;100532.09;4990157;28;20057;-50
2022/04/10 04:49:27;;;;;;;0.43;0.10;;;;;;;18.85;46.34;100528.84;4990494;28;20030;-48
2022/04/10 04:51:53;;;;;;;0.60;0.10;;;;;;;18.85;46.22;100531.47;4990089;28;20481;-48
2022/04/10 04:54:18;;;;;;;1.40;0.05;;;;;;;18.85;46.16;100528.03;4990071;28;20073;-46
2022/04/10 04:56:44;;;;;;;0.22;0.00;;;;;;;18.84;46.00;100540.41;4990004;28;20034;-47
2022/04/10 04:59:09;;;;;;;0.57;0.10;;;;;;;18.84;46.13;100542.22;4990248;28;20026;-49
2022/04/10 05:01:35;;;;;;;0.52;0.10;;;;;;;18.82;46.47;100555.63;4987895;28;20050;-53
2022/04/10 05:04:01;;;;;;;1.60;0.10;;;;;;;18.82;46.65;100554.81;4988341;28;20039;-50
2022/04/10 05:06:26;;;;;;;0.40;0.08;;;;;;;18.81;46.65;100559.28;4987820;28;20030;-52
2022/04/10 05:08:52;;;;;;;0.22;0.10;;;;;;;18.82;46.72;100560.91;4989317;28;20559;-49
2022/04/10 05:11:18;;;;;;;1.42;0.10;;;;;;;18.81;46.75;100559.28;4989214;28;20044;-53
2022/04/10 05:13:43;;;;;;;0.57;0.10;;;;;;;18.80;46.43;100562.09;4988730;28;20352;-50
2022/04/10 05:16:09;;;;;;;0.22;0.10;;;;;;;18.80;46.40;100570.03;4989768;28;20037;-53
2022/04/10 05:18:35;;;;;;;0.50;0.10;;;;;;;18.79;46.32;100576.31;4988879;28;20030;-51
2022/04/10 05:21:01;;;;;;;0.60;0.17;;;;;;;18.78;46.37;100579.97;4988142;28;20044;-50
2022/04/10 05:23:27;;;;;;;0.43;0.10;;;;;;;18.77;46.42;100584.44;4989712;28;20121;-46
2022/04/10 05:25:53;;;;;;;0.95;0.10;;;;;;;18.77;46.30;100586.25;4987629;28;20113;-52
2022/04/10 05:28:18;;;;;;;0.20;0.00;;;;;;;18.76;46.42;100596.00;4988930;28;20121;-51
2022/04/10 05:30:44;;;;;;;2.90;0.20;;;;;;;18.74;46.40;100595.38;4988913;28;20044;-49
2022/04/10 05:33:10;;;;;;;0.85;0.10;;;;;;;18.73;46.13;100596.38;4989950;28;20204;-55
2022/04/10 05:35:36;;;;;;;0.57;0.10;;;;;;;18.75;46.13;100601.47;4988846;28;20116;-49
2022/04/10 05:38:02;;;;;;;0.45;0.00;;;;;;;18.76;46.12;100597.81;4988668;28;20113;-48
2022/04/10 05:40:28;;;;;;;0.30;0.10;;;;;;;18.76;46.15;100611.81;4988524;28;21024;-48
2022/04/10 05:42:53;;;;;;;2.10;0.13;;;;;;;18.77;46.31;100613.47;5003486;28;20022;-52
2022/04/10 05:45:19;;;;;;;0.57;0.10;;;;;;;18.76;45.96;100606.53;4989430;28;20034;-51
2022/04/10 05:47:45;;;;;;;0.47;0.10;;;;;;;18.78;45.92;100615.09;4988640;28;20030;-50
2022/04/10 05:50:12;;;;;;;1.00;0.10;;;;;;;18.80;45.96;100620.16;4986594;28;20069;-55
2022/04/10 05:52:39;;;;;;;0.30;0.00;;;;;;;18.80;46.03;100620.16;4987779;28;20089;-49
2022/04/10 05:55:06;;;;;;;0.35;0.10;;;;;;;18.80;45.99;100623.63;4988489;28;20037;-49
2022/04/10 05:57:32;;;;;;;1.90;0.10;;;;;;;18.81;46.19;100629.72;4985117;28;20026;-49
2022/04/10 05:59:57;;;;;;;0.85;0.10;;;;;;;18.82;46.01;100628.72;4986900;28;20128;-49
2022/04/10 06:02:23;;;;;;;0.80;0.10;;;;;;;18.81;46.02;100630.53;4988118;28;20026;-48
2022/04/10 06:04:48;;;;;;;0.40;0.00;;;;;;;18.79;46.27;100629.09;4987686;28;20030;-52
2022/04/10 06:07:14;;;;;;;0.38;0.10;;;;;;;18.79;46.26;100637.03;4988514;28;20032;-49
2022/04/10 06:09:40;;;;;;;1.05;0.10;;;;;;;18.78;46.09;100627.47;4988386;28;20462;-51
2022/04/10 06:12:06;;;;;;;0.63;0.10;;;;;;;18.77;46.33;100631.94;4988529;28;20557;-47
2022/04/10 06:14:31;;;;;;;0.32;0.00;;;;;;;18.78;46.38;100632.75;4988058;28;20040;-53
2022/04/10 06:16:57;;;;;;;2.05;0.10;;;;;;;18.77;46.54;100636.41;4988789;28;20385;-48
2022/04/10 06:19:23;;;;;;;0.75;0.10;;;;;;;18.79;46.68;100643.09;4988551;28;20030;-47
2022/04/10 06:21:48;;;;;;;0.63;0.10;;;;;;;18.80;47.26;100641.28;4988500;28;20037;-48
2022/04/10 06:24:13;;;;;;;0.75;0.00;;;;;;;18.81;47.46;100643.72;4987796;28;20022;-45
2022/04/10 06:26:40;;;;;;;0.63;0.10;;;;;;;18.84;47.48;100651.28;4988394;28;20157;-51
2022/04/10 06:29:06;;;;;;;0.63;0.10;;;;;;;18.86;47.85;100645.78;4988439;28;20098;-52
2022/04/10 06:31:32;;;;;;;0.30;0.10;;;;;;;18.90;48.05;100653.09;4987080;28;20026;-50
2022/04/10 06:33:57;;;;;;;0.57;0.20;;;;;;;18.93;48.32;100649.25;4986953;28;20397;-47
2022/04/10 06:36:23;;;;;;;0.63;0.30;;;;;;;18.97;48.60;100642.59;4987010;28;20107;-53
2022/04/10 06:38:49;;;;;;;0.40;0.10;;;;;;;19.00;48.61;100646.66;4988225;28;20106;-51
2022/04/10 06:41:16;;;;;;;1.70;0.10;;;;;;;19.04;48.82;100642.63;5000731;28;20568;-47
2022/04/10 06:43:42;;;;;;;0.85;0.10;;;;;;;19.09;49.07;100646.31;4987936;28;20062;-48
2022/04/10 06:46:08;;;;;;;3.33;0.10;;;;;;;19.12;49.29;100645.94;4985947;28;20060;-51
2022/04/10 06:48:35;;;;;;;0.80;0.08;;;;;;;19.16;48.86;100652.44;4986813;28;20069;-48
2022/04/10 06:51:01;;;;;;;4.82;0.32;;;;;;;19.19;49.53;100656.53;4985545;28;20030;-46
2022/04/10 06:53:27;;;;;;;1.73;0.20;;;;;;;19.25;50.14;100660.22;4983611;28;20030;-47
2022/04/10 06:55:52;;;;;;;1.27;0.10;;;;;;;19.27;50.00;100666.13;4986823;28;20027;-48
2022/04/10 06:58:19;;;;;;;0.30;0.10;;;;;;;19.31;49.53;100664.72;4986608;28;20042;-45
2022/04/10 07:00:45;;;;;;;0.55;0.10;;;;;;;19.33;49.68;100660.03;4986543;28;20030;-46
2022/04/10 07:03:11;;;;;;;4.53;0.10;;;;;;;19.37;49.20;100659.47;4986941;28;20038;-49
2022/04/10 07:05:37;;;;;;;3.22;0.20;;;;;;;19.40;49.21;100650.28;4984192;28;20029;-46
2022/04/10 07:08:03;;;;;;;1.90;0.10;;;;;;;19.43;48.99;100652.53;4986567;28;20466;-49
2022/04/10 07:10:29;;;;;;;2.33;0.20;;;;;;;19.44;48.92;100652.34;5002525;28;20087;-47
2022/04/10 07:12:54;;;;;;;2.20;0.10;;;;;;;19.46;48.81;100646.88;4984806;28;20100;-47
2022/04/10 07:15:20;;;;;;;0.50;0.10;;;;;;;19.45;48.90;100651.34;4987549;28;20034;-47
2022/04/10 07:17:45;;;;;;;2.47;0.10;;;;;;;19.44;48.93;100644.41;4987444;28;20103;-45
2022/04/10 07:20:11;;;;;;;1.83;0.10;;;;;;;19.45;48.76;100645.22;4985648;28;20174;-50
2022/04/10 07:25:21;;;;;;;3.40;0.10;;;;;;;19.44;49.24;100659.47;4987667;28;20045;-51
2022/04/10 07:27:46;;;;;;;2.50;0.10;;;;;;;19.44;49.46;100652.34;4987266;28;20034;-52
2022/04/10 07:30:12;;;;;;;1.80;0.10;;;;;;;19.47;49.41;100659.88;4986822;28;20026;-49
2022/04/10 07:32:39;;;;;;;0.55;0.10;;;;;;;19.47;49.19;100657.25;4987381;28;20082;-55
2022/04/10 07:35:05;;;;;;;1.73;0.10;;;;;;;19.51;49.26;100660.34;4987566;28;20034;-55
2022/04/10 07:37:31;;;;;;;2.53;0.38;;;;;;;19.55;49.64;100656.28;4987764;28;20030;-50
2022/04/10 07:39:57;;;;;;;4.93;0.20;;;;;;;19.60;49.54;100658.34;4987126;28;20030;-51
2022/04/10 07:42:23;;;;;;;2.20;0.10;;;;;;;19.60;50.16;100655.69;4987473;28;20053;-58
2022/04/10 07:44:48;;;;;;;1.85;0.20;;;;;;;19.54;50.03;100659.94;4987156;28;20413;-53
2022/04/10 07:47:26;;;;;;;1.27;0.10;;;;;;;19.52;50.02;100668.06;4985588;28;20054;-56
2022/04/10 07:49:53;;;;;;;4.90;0.20;;;;;;;19.49;50.14;100665.78;4987160;28;20033;-58
2022/04/10 07:52:22;;;;;;;3.95;0.30;;;;;;;19.49;49.78;100665.78;4984968;28;20045;-58
2022/04/10 07:54:48;;;;;;;2.03;0.30;;;;;;;19.51;49.88;100670.91;4991705;23;20534;-52
2022/04/10 07:57:14;;;;;;;2.40;0.20;;;;;;;19.51;49.68;100671.72;4986984;28;20113;-55
2022/04/10 07:59:39;;;;;;;7.00;0.30;;;;;;;19.52;49.44;100680.47;4986540;28;20153;-53
2022/04/10 08:02:05;;;;;;;4.32;0.28;;;;;;;19.54;49.33;100673.97;4985183;28;20066;-57
2022/04/10 08:04:30;;;;;;;10.27;0.30;;;;;;;19.56;49.29;100676.41;4986712;28;20037;-49
2022/04/10 08:06:56;;;;;;;10.00;0.20;;;;;;;19.57;49.22;100675.41;4986625;28;20126;-48
2022/04/10 08:09:21;;;;;;;9.30;0.43;;;;;;;19.57;48.82;100682.50;4986471;28;20030;-50
2022/04/10 08:11:50;;;;;;;8.65;0.40;;;;;;;19.57;48.71;100687.81;4985969;28;20035;-48
2022/04/10 08:14:16;;;;;;;3.40;0.17;;;;;;;19.55;48.95;100688.81;4986516;28;20401;-46
2022/04/10 08:16:42;;;;;;;3.72;0.35;;;;;;;19.55;48.88;100682.72;4987111;28;20030;-49
2022/04/10 08:19:08;;;;;;;4.88;0.30;;;;;;;19.53;48.71;100688.19;4985289;28;20054;-48
2022/04/10 08:21:33;;;;;;;3.97;0.20;;;;;;;19.51;48.86;100692.84;4984790;28;20026;-49
2022/04/10 08:23:59;;;;;;;6.07;0.30;;;;;;;19.51;48.73;100695.50;4982885;28;20045;-46
2022/04/10 08:26:24;;;;;;;3.35;0.28;;;;;;;19.51;48.27;100700.78;4980444;28;20185;-50
2022/04/10 08:28:50;;;;;;;1.95;0.20;;;;;;;19.55;48.30;100703.84;4983378;28;20030;-48
2022/04/10 08:31:15;;;;;;;5.57;0.30;;;;;;;19.53;47.64;100693.47;4984189;28;20038;-45
2022/04/10 08:33:41;;;;;;;4.32;0.20;;;;;;;19.51;47.56;100700.78;4982918;28;20181;-48
2022/04/10 08:36:06;;;;;;;2.17;0.22;;;;;;;19.49;47.11;100700.13;4984962;28;20121;-48
2022/04/10 08:38:32;;;;;;;2.90;0.20;;;;;;;19.48;46.57;100703.78;4985487;28;20383;-47
2022/04/10 08:41:00;;;;;;;6.57;0.52;;;;;;;19.46;46.33;100708.44;4979789;28;20031;-45
2022/04/10 08:43:26;;;;;;;7.53;0.30;;;;;;;19.45;45.95;100703.38;4984651;28;20034;-48
2022/04/10 08:45:51;;;;;;;4.78;0.20;;;;;;;19.43;45.56;100700.09;4980915;28;20825;-46
2022/04/10 08:48:18;;;;;;;12.82;0.30;;;;;;;19.42;45.16;100704.56;4988746;28;20034;-48
2022/04/10 08:50:43;;;;;;;0.75;0.10;;;;;;;19.39;44.77;100709.44;4986850;28;20038;-45
2022/04/10 08:53:09;;;;;;;2.15;0.22;;;;;;;19.38;44.58;100703.34;4989667;28;20077;-45
2022/04/10 08:55:35;;;;;;;0.60;0.10;;;;;;;19.37;44.20;100707.00;4986117;28;20023;-46
2022/04/10 08:58:04;;;;;;;0.70;0.10;;;;;;;19.35;43.75;100706.41;4986734;28;20076;-46
2022/04/10 09:00:30;;;;;;;1.77;0.20;;;;;;;19.34;43.31;100709.22;4988443;28;20038;-49
2022/04/10 09:02:55;;;;;;;2.40;0.13;;;;;;;19.34;43.32;100707.41;4987811;28;20036;-45
2022/04/10 09:05:22;;;;;;;4.10;0.20;;;;;;;19.36;43.43;100712.50;4990285;28;20054;-56
2022/04/10 09:08:09;;;;;;;4.32;0.20;;;;;;;19.34;43.16;100709.22;4990096;28;20508;-49
2022/04/10 09:10:56;;;;;;;4.43;0.30;;;;;;;19.33;43.31;100721.63;4987037;28;20061;-53
2022/04/10 09:13:26;;;;;;;5.60;0.30;;;;;;;19.34;43.32;100717.97;4988347;28;20407;-49
2022/04/10 09:16:00;;;;;;;11.70;0.50;;;;;;;19.32;43.08;100714.72;5003802;28;20045;-47
2022/04/10 09:18:26;;;;;;;7.90;1.15;;;;;;;19.31;42.70;100715.72;4989095;28;20545;-47
2022/04/10 09:21:08;;;;;;;14.52;0.40;;;;;;;19.27;41.49;100716.31;4989824;28;20117;-46
2022/04/10 09:23:34;;;;;;;5.80;0.52;;;;;;;19.26;41.58;100723.41;4989102;28;20026;-46
2022/04/10 09:25:59;;;;;;;4.47;0.20;;;;;;;19.25;40.71;100720.97;4989745;28;20093;-50
2022/04/10 09:28:45;;;;;;;1.35;0.20;;;;;;;19.20;40.19;100718.91;4989660;28;20482;-52
2022/04/10 09:31:27;;;;;;;3.33;0.20;;;;;;;19.17;39.67;100720.09;4989154;28;20046;-47
2022/04/10 09:33:53;;;;;;;3.40;0.30;;;;;;;19.20;40.05;100730.28;4989277;28;20434;-50
2022/04/10 09:36:39;;;;;;;3.90;0.10;;;;;;;19.19;39.56;100722.56;4988497;28;20065;-50
2022/04/10 09:39:07;;;;;;;0.52;0.10;;;;;;;19.20;40.21;100721.53;4987611;28;20038;-43
2022/04/10 09:41:33;;;;;;;1.33;0.20;;;;;;;19.19;40.00;100712.00;4989423;28;20100;-46
2022/04/10 09:44:00;;;;;;;1.55;0.20;;;;;;;19.19;40.21;100722.56;4988857;28;20442;-51
2022/04/10 09:46:26;;;;;;;1.55;0.10;;;;;;;19.19;40.13;100723.38;4988426;28;20500;-47
2022/04/10 09:48:52;;;;;;;1.85;0.20;;;;;;;19.19;40.18;100717.28;4989210;28;20058;-48
2022/04/10 09:51:17;;;;;;;0.57;0.10;;;;;;;19.19;40.43;100720.72;4989328;28;20035;-47
2022/04/10 09:54:01;;;;;;;2.17;0.10;;;;;;;19.17;40.00;100720.09;4989301;28;20071;-43
2022/04/10 09:56:27;;;;;;;0.60;0.10;;;;;;;19.21;40.50;100715.25;4971000;28;20089;-48
2022/04/10 09:58:57;;;;;;;1.38;0.10;;;;;;;19.19;40.54;100717.28;4983955;28;20497;-51
2022/04/10 10:01:25;;;;;;;1.88;0.15;;;;;;;19.20;40.73;100705.69;4986689;28;20545;-54
2022/04/10 10:03:52;;;;;;;2.33;0.10;;;;;;;19.20;40.97;100706.50;4989229;28;20061;-51
2022/04/10 10:06:19;;;;;;;1.80;0.10;;;;;;;19.20;41.19;100706.50;4986147;28;20058;-46
2022/04/10 10:08:45;;;;;;;0.40;0.10;;;;;;;19.21;41.49;100707.31;4987956;28;20417;-45
2022/04/10 10:11:11;;;;;;;0.30;0.10;;;;;;;19.20;41.66;100695.13;4989996;28;20108;-50
2022/04/10 10:13:38;;;;;;;1.98;0.10;;;;;;;19.21;41.62;100705.50;4989603;28;20137;-44
2022/04/10 10:16:04;;;;;;;2.33;0.15;;;;;;;19.23;41.56;100700.03;4987927;28;20425;-50
2022/04/10 10:18:31;;;;;;;0.63;0.10;;;;;;;19.25;41.74;100700.66;4989170;28;20030;-46
2022/04/10 10:20:57;;;;;;;1.90;0.10;;;;;;;19.27;41.71;100697.81;4989201;28;20114;-44
2022/04/10 10:23:23;;;;;;;0.95;0.10;;;;;;;19.28;41.88;100697.63;4988619;28;20561;-49
2022/04/10 10:26:27;;;;;;;0.57;0.10;;;;;;;19.25;42.10;100697.19;4987079;28;20477;-50
2022/04/10 10:29:20;;;;;;;3.03;0.25;;;;;;;19.26;42.23;100699.63;4988247;28;20030;-43
2022/04/10 10:31:45;;;;;;;1.05;0.22;;;;;;;19.26;42.63;100688.25;4987899;28;20404;-50
2022/04/10 10:34:11;;;;;;;2.33;0.10;;;;;;;19.26;42.74;100689.06;4988663;28;20828;-48
2022/04/10 10:36:37;;;;;;;0.77;0.10;;;;;;;19.25;42.89;100697.19;4988096;28;20250;-49
2022/04/10 10:39:08;;;;;;;0.40;0.10;;;;;;;19.23;43.00;100692.09;4987448;28;20030;-45
2022/04/10 10:41:37;;;;;;;0.70;0.10;;;;;;;19.21;43.18;100692.28;4988312;28;20036;-52
2022/04/10 10:44:24;;;;;;;0.63;0.10;;;;;;;19.17;43.39;100685.78;4987261;28;20507;-44
2022/04/10 10:47:02;;;;;;;0.80;0.20;;;;;;;19.17;43.38;100684.94;4986820;28;20046;-44
2022/04/10 10:49:29;;;;;;;2.30;0.10;;;;;;;19.17;43.57;100687.59;4988041;28;20053;-47
2022/04/10 10:51:56;;;;;;;0.88;0.10;;;;;;;19.16;43.49;100673.56;4988027;28;20263;-49
2022/04/10 10:54:24;;;;;;;2.78;0.10;;;;;;;19.16;43.57;100685.97;4986964;28;20038;-46
2022/04/10 10:56:50;;;;;;;0.47;0.10;;;;;;;19.15;43.66;100686.97;4988210;28;20485;-45
2022/04/10 10:59:32;;;;;;;1.20;0.10;;;;;;;19.12;43.91;100674.97;4988173;28;20038;-45
2022/04/10 11:02:10;;;;;;;0.77;0.10;;;;;;;19.11;44.15;100678.63;4987236;28;20042;-47
2022/04/10 11:04:40;;;;;;;1.50;0.10;;;;;;;19.12;44.20;100679.44;4987928;28;20038;-47
2022/04/10 11:07:22;;;;;;;1.00;0.10;;;;;;;19.10;44.17;100673.53;4988035;28;20117;-49
2022/04/10 11:09:58;;;;;;;0.93;0.13;;;;;;;19.10;44.22;100671.72;4987551;28;20459;-49
2022/04/10 11:12:31;;;;;;;1.10;0.10;;;;;;;19.09;44.42;100672.72;4986550;28;20429;-49
2022/04/10 11:14:59;;;;;;;1.02;0.10;;;;;;;19.08;44.23;100671.09;4987707;28;20030;-50
2022/04/10 11:17:30;;;;;;;0.77;0.10;;;;;;;19.07;44.31;100671.28;4986561;28;20732;-47
2022/04/10 11:19:59;;;;;;;2.08;0.10;;;;;;;19.08;44.43;100665.00;4987485;28;20084;-54
2022/04/10 11:22:32;;;;;;;0.75;0.20;;;;;;;19.08;44.65;100670.28;4986525;28;20074;-46
2022/04/10 11:24:59;;;;;;;0.63;0.10;;;;;;;19.10;44.58;100670.91;4984758;28;20121;-44
2022/04/10 11:27:44;;;;;;;0.43;0.10;;;;;;;19.08;44.70;100676.38;4987495;28;20087;-45
2022/04/10 11:30:39;;;;;;;2.03;0.10;;;;;;;19.08;44.87;100665.00;4986449;28;20481;-46